Time;durP1;ratioP1;P1;durP2;ratioP2;P2;SDS_P1;SDS_P2;PMS_P1;PMS_P2;Temp;Humidity;BMP_temperature;BMP_pressure;BME280_temperature;BME280_humidity;BME280_pressure;Samples;Min_cycle;Max_cycle;Signal;HPM_P1;HPM_P2
2023/08/10 00:00:00;;;;;;;3.83;2.70;;;15.10;99.90;;;;;;4975898;28;20792;-60
2023/08/10 00:02:27;;;;;;;5.20;3.00;;;15.10;99.90;;;;;;4975983;28;20494;-60
2023/08/10 00:04:56;;;;;;;3.77;2.30;;;15.10;99.90;;;;;;4993588;28;20454;-59
2023/08/10 00:07:22;;;;;;;3.30;2.70;;;15.10;99.90;;;;;;4995194;28;20541;-60
2023/08/10 00:09:49;;;;;;;4.10;3.30;;;15.10;99.90;;;;;;4995151;28;20537;-60
2023/08/10 00:12:16;;;;;;;5.50;2.77;;;15.20;99.90;;;;;;4995046;28;20553;-59
2023/08/10 00:14:43;;;;;;;4.60;2.60;;;15.20;99.90;;;;;;4995187;28;20553;-59
2023/08/10 00:17:10;;;;;;;3.73;2.37;;;15.10;99.90;;;;;;4995228;28;20574;-58
2023/08/10 00:19:37;;;;;;;3.43;3.13;;;15.10;99.90;;;;;;4995274;28;20543;-59
2023/08/10 00:22:05;;;;;;;4.13;2.63;;;15.10;99.90;;;;;;4995222;28;20490;-59
2023/08/10 00:24:32;;;;;;;7.10;2.57;;;15.10;99.90;;;;;;4998747;28;20462;-59
2023/08/10 00:26:59;;;;;;;3.97;3.00;;;15.00;99.90;;;;;;5008752;28;20457;-61
2023/08/10 00:29:26;;;;;;;2.83;2.20;;;15.00;99.90;;;;;;4995027;28;20458;-59
2023/08/10 00:31:53;;;;;;;4.63;2.47;;;15.00;99.90;;;;;;5000270;28;20927;-62
2023/08/10 00:34:19;;;;;;;3.80;2.90;;;15.00;99.90;;;;;;5008103;28;20500;-61
2023/08/10 00:36:46;;;;;;;6.00;2.70;;;14.90;99.90;;;;;;5012065;28;20458;-60
2023/08/10 00:39:14;;;;;;;3.83;2.93;;;15.00;99.90;;;;;;5010365;28;20470;-57
2023/08/10 00:41:41;;;;;;;3.70;2.60;;;15.00;99.90;;;;;;4997112;28;20538;-60
2023/08/10 00:44:08;;;;;;;4.97;2.80;;;15.00;99.90;;;;;;4995173;28;20434;-59
2023/08/10 00:46:36;;;;;;;4.67;3.00;;;15.00;99.90;;;;;;4996343;28;20529;-61
2023/08/10 00:49:04;;;;;;;4.20;2.00;;;15.00;99.90;;;;;;4996430;28;20542;-58
2023/08/10 00:51:31;;;;;;;3.83;2.80;;;15.00;99.90;;;;;;5004408;28;20460;-59
2023/08/10 00:54:00;;;;;;;6.47;2.90;;;15.00;99.90;;;;;;5005603;28;20456;-59
2023/08/10 00:56:28;;;;;;;7.00;3.20;;;15.00;99.90;;;;;;5006065;28;20552;-60
2023/08/10 00:58:55;;;;;;;2.63;2.00;;;15.00;99.90;;;;;;5015672;28;20660;-59
2023/08/10 01:01:25;;;;;;;2.77;2.20;;;15.00;99.90;;;;;;5014210;28;20481;-56
2023/08/10 01:03:52;;;;;;;4.80;3.60;;;15.00;99.90;;;;;;5015352;28;20496;-59
2023/08/10 01:06:25;;;;;;;4.33;2.60;;;15.00;99.90;;;;;;5015620;28;20446;-60
2023/08/10 01:09:03;;;;;;;5.20;2.50;;;14.80;99.90;;;;;;5014895;28;20500;-60
2023/08/10 01:11:38;;;;;;;2.57;2.30;;;15.00;99.90;;;;;;5014795;28;20477;-60
2023/08/10 01:14:13;;;;;;;2.77;2.13;;;15.00;99.90;;;;;;5014775;28;20417;-61
2023/08/10 01:16:43;;;;;;;5.73;2.60;;;14.90;99.90;;;;;;5000865;28;20803;-59
2023/08/10 01:19:22;;;;;;;6.77;3.37;;;14.90;99.90;;;;;;4998224;28;20485;-61
2023/08/10 01:21:55;;;;;;;3.90;2.73;;;14.90;99.90;;;;;;4995514;28;20466;-59
2023/08/10 01:24:28;;;;;;;3.40;2.50;;;14.90;99.90;;;;;;4993912;28;20535;-60
2023/08/10 01:27:00;;;;;;;4.37;3.03;;;14.90;99.90;;;;;;5000801;28;20470;-60
2023/08/10 01:29:27;;;;;;;5.07;4.07;;;14.90;99.90;;;;;;5014003;28;20473;-59
2023/08/10 01:31:54;;;;;;;2.83;2.33;;;14.90;99.90;;;;;;5014044;28;20445;-60
2023/08/10 01:34:21;;;;;;;2.83;2.50;;;15.00;99.90;;;;;;5014355;28;20449;-57
2023/08/10 01:36:48;;;;;;;3.17;2.47;;;15.00;99.90;;;;;;5014170;28;20450;-59
2023/08/10 01:39:15;;;;;;;7.90;2.50;;;15.00;99.90;;;;;;5008452;28;20527;-59
2023/08/10 01:41:42;;;;;;;4.43;2.90;;;15.00;99.90;;;;;;5021376;28;20446;-50
2023/08/10 01:44:10;;;;;;;7.07;2.97;;;15.00;99.90;;;;;;5021445;28;20442;-50
2023/08/10 01:46:41;;;;;;;3.80;3.10;;;14.90;99.90;;;;;;5019590;28;20447;-58
2023/08/10 01:49:11;;;;;;;2.83;2.53;;;15.00;99.90;;;;;;5018602;28;20440;-56
2023/08/10 01:51:47;;;;;;;3.20;2.40;;;14.90;99.90;;;;;;5019255;28;20784;-56
2023/08/10 01:54:16;;;;;;;3.00;2.70;;;14.90;99.90;;;;;;5019312;28;20422;-56
2023/08/10 01:56:47;;;;;;;3.47;2.17;;;14.90;99.90;;;;;;5018640;28;20450;-54
2023/08/10 01:59:16;;;;;;;6.50;2.10;;;14.80;99.90;;;;;;5017656;28;20433;-55
2023/08/10 02:01:42;;;;;;;3.73;2.63;;;14.80;99.90;;;;;;5017963;28;20461;-52
2023/08/10 02:04:09;;;;;;;3.20;2.60;;;14.80;99.90;;;;;;5017147;28;20477;-59
2023/08/10 02:06:40;;;;;;;3.23;2.33;;;14.80;99.90;;;;;;5017683;28;20453;-59
2023/08/10 02:09:07;;;;;;;5.83;3.07;;;14.80;99.90;;;;;;5018267;28;20468;-61
2023/08/10 02:11:35;;;;;;;4.37;2.33;;;14.80;99.90;;;;;;5017544;28;20474;-50
2023/08/10 02:14:02;;;;;;;4.60;2.63;;;14.80;99.90;;;;;;5019200;28;20481;-58
2023/08/10 02:16:35;;;;;;;3.43;2.63;;;14.70;99.90;;;;;;5018447;28;20449;-59
2023/08/10 02:19:01;;;;;;;6.43;2.60;;;14.70;99.90;;;;;;5018788;28;20446;-60
2023/08/10 02:21:28;;;;;;;2.90;2.10;;;14.70;99.90;;;;;;5018528;28;20438;-56
2023/08/10 02:23:55;;;;;;;4.87;2.43;;;14.70;99.90;;;;;;5011853;28;20485;-61
2023/08/10 02:26:22;;;;;;;3.60;2.30;;;14.70;99.90;;;;;;4997203;28;20524;-62
2023/08/10 02:28:49;;;;;;;6.00;2.80;;;14.70;99.90;;;;;;4997080;28;20510;-60
2023/08/10 02:31:16;;;;;;;6.30;2.83;;;14.70;99.90;;;;;;4996780;28;20943;-62
2023/08/10 02:33:44;;;;;;;3.47;2.70;;;14.70;99.90;;;;;;4996844;28;20525;-59
2023/08/10 02:36:11;;;;;;;2.60;2.20;;;14.70;99.90;;;;;;5017055;28;20501;-57
2023/08/10 02:38:38;;;;;;;5.10;2.90;;;14.60;99.90;;;;;;5017981;28;20450;-58
2023/08/10 02:41:05;;;;;;;3.73;2.80;;;14.60;99.90;;;;;;5018617;28;20461;-58
2023/08/10 02:43:32;;;;;;;3.50;2.20;;;14.60;99.90;;;;;;5018378;28;20472;-59
2023/08/10 02:45:59;;;;;;;3.53;2.10;;;14.60;99.90;;;;;;5018151;28;20465;-59
2023/08/10 02:48:26;;;;;;;2.77;2.40;;;14.50;99.90;;;;;;5018167;28;20457;-59
2023/08/10 02:50:54;;;;;;;3.37;1.83;;;14.50;99.90;;;;;;5018012;28;20489;-57
2023/08/10 02:53:21;;;;;;;3.13;2.10;;;14.50;99.90;;;;;;5017700;28;20477;-57
2023/08/10 02:55:48;;;;;;;4.00;2.50;;;14.50;99.90;;;;;;5017966;28;20422;-58
2023/08/10 02:58:15;;;;;;;3.30;2.30;;;14.50;99.90;;;;;;5017962;28;20446;-60
2023/08/10 03:00:42;;;;;;;3.20;1.93;;;14.50;99.90;;;;;;5000322;28;20422;-58
2023/08/10 03:03:09;;;;;;;3.73;2.30;;;14.50;99.90;;;;;;4996571;28;20489;-61
2023/08/10 03:05:36;;;;;;;2.80;1.93;;;14.50;99.90;;;;;;4996548;28;20437;-60
2023/08/10 03:08:08;;;;;;;2.23;1.80;;;14.50;99.90;;;;;;4996213;28;20533;-61
2023/08/10 03:10:34;;;;;;;4.20;2.00;;;14.50;99.90;;;;;;4996220;28;20476;-60
2023/08/10 03:13:01;;;;;;;4.17;2.83;;;14.40;99.90;;;;;;4999072;28;20546;-60
2023/08/10 03:15:28;;;;;;;3.30;2.37;;;14.40;99.90;;;;;;5002395;28;20481;-59
2023/08/10 03:17:55;;;;;;;5.30;2.70;;;14.40;99.90;;;;;;5004187;28;20599;-60
2023/08/10 03:20:22;;;;;;;8.73;3.77;;;14.30;99.90;;;;;;4998921;28;20442;-60
2023/08/10 03:22:49;;;;;;;8.93;2.27;;;14.30;99.90;;;;;;4995792;28;20524;-60
2023/08/10 03:25:17;;;;;;;4.07;2.40;;;14.30;99.90;;;;;;4995754;28;20446;-58
2023/08/10 03:27:44;;;;;;;7.53;2.80;;;14.20;99.90;;;;;;4995993;28;20470;-61
2023/08/10 03:30:12;;;;;;;12.70;2.60;;;14.20;99.90;;;;;;4995128;28;20534;-60
2023/08/10 03:32:39;;;;;;;3.53;2.20;;;14.20;99.90;;;;;;4995979;28;20470;-60
2023/08/10 03:35:06;;;;;;;2.87;2.17;;;14.20;99.90;;;;;;4995628;28;20529;-61
2023/08/10 03:37:33;;;;;;;5.00;2.90;;;14.20;99.90;;;;;;4995537;28;20557;-57
2023/08/10 03:40:00;;;;;;;7.93;3.00;;;14.20;99.90;;;;;;4997451;28;20504;-61
2023/08/10 03:42:28;;;;;;;3.67;2.70;;;14.20;99.90;;;;;;4998951;28;20497;-59
2023/08/10 03:44:55;;;;;;;8.73;2.90;;;14.20;99.90;;;;;;4996252;28;20517;-60
2023/08/10 03:47:22;;;;;;;4.00;2.60;;;14.20;99.90;;;;;;4995747;28;20529;-61
2023/08/10 03:49:49;;;;;;;4.50;1.87;;;14.20;99.90;;;;;;4995539;28;20478;-58
2023/08/10 03:52:16;;;;;;;5.00;2.20;;;14.30;99.90;;;;;;4995684;28;20764;-58
2023/08/10 03:54:43;;;;;;;6.50;2.50;;;14.30;99.90;;;;;;4995903;28;20955;-59
2023/08/10 03:57:10;;;;;;;3.90;2.53;;;14.30;99.90;;;;;;4996533;28;20524;-60
2023/08/10 03:59:39;;;;;;;4.77;3.27;;;14.30;99.90;;;;;;4996372;28;20561;-59
2023/08/10 04:02:05;;;;;;;5.70;3.30;;;14.30;99.90;;;;;;4998373;28;20474;-60
2023/08/10 04:04:33;;;;;;;3.57;2.20;;;14.30;99.90;;;;;;4999130;28;20577;-59
2023/08/10 04:07:00;;;;;;;6.07;3.20;;;14.30;99.90;;;;;;5003813;28;20474;-59
2023/08/10 04:09:27;;;;;;;11.40;2.50;;;14.30;99.90;;;;;;5003994;28;20449;-60
2023/08/10 04:11:55;;;;;;;2.63;2.30;;;14.30;99.90;;;;;;5011815;28;20542;-59
2023/08/10 04:14:22;;;;;;;2.40;2.07;;;14.30;99.90;;;;;;5012650;28;20450;-60
2023/08/10 04:16:51;;;;;;;6.20;2.37;;;14.40;99.90;;;;;;5012980;28;20474;-59
2023/08/10 04:19:18;;;;;;;3.90;1.93;;;14.40;99.90;;;;;;5012455;28;20453;-61
2023/08/10 04:21:46;;;;;;;3.87;1.83;;;14.50;99.90;;;;;;5003748;28;20485;-60
2023/08/10 04:24:13;;;;;;;1.90;1.70;;;14.50;99.90;;;;;;4995215;28;20581;-61
2023/08/10 04:26:39;;;;;;;6.70;2.00;;;14.50;99.90;;;;;;5000273;28;20500;-61
2023/08/10 04:29:06;;;;;;;3.70;2.60;;;14.50;99.90;;;;;;5001414;28;20506;-58
2023/08/10 04:31:33;;;;;;;3.60;2.03;;;14.50;99.90;;;;;;4989088;28;20462;-59
2023/08/10 04:34:02;;;;;;;8.30;1.67;;;14.50;99.90;;;;;;4981982;28;20850;-62
2023/08/10 04:36:28;;;;;;;8.27;2.27;;;14.60;99.90;;;;;;5002361;28;20434;-49
2023/08/10 04:38:57;;;;;;;4.07;2.07;;;14.60;99.90;;;;;;5014943;28;20438;-45
2023/08/10 04:41:24;;;;;;;4.70;1.93;;;14.60;99.90;;;;;;5024918;28;20411;-50
2023/08/10 04:43:51;;;;;;;6.27;2.50;;;14.70;99.90;;;;;;5023070;28;20481;-52
2023/08/10 04:46:17;;;;;;;3.23;1.93;;;14.70;99.90;;;;;;5023034;28;20462;-57
2023/08/10 04:48:44;;;;;;;3.70;2.33;;;14.80;99.90;;;;;;5023267;28;20457;-57
2023/08/10 04:51:13;;;;;;;2.50;1.80;;;14.80;99.90;;;;;;5023079;28;20486;-60
2023/08/10 04:53:39;;;;;;;2.30;1.90;;;14.80;99.90;;;;;;5023081;28;20418;-59
2023/08/10 04:56:06;;;;;;;4.87;2.10;;;14.90;99.90;;;;;;5022893;28;20472;-56
2023/08/10 04:58:36;;;;;;;3.50;2.33;;;14.90;99.90;;;;;;5022545;28;20438;-56
2023/08/10 05:01:03;;;;;;;3.13;1.93;;;16.40;99.90;;;;;;5022518;28;20449;-60
2023/08/10 05:03:30;;;;;;;5.80;3.00;;;15.00;99.90;;;;;;5022818;28;20450;-57
2023/08/10 05:05:57;;;;;;;6.00;1.93;;;15.10;99.90;;;;;;5003973;28;20490;-65
2023/08/10 05:08:26;;;;;;;3.83;2.03;;;15.10;99.90;;;;;;5003449;28;20462;-60
2023/08/10 05:10:53;;;;;;;7.37;2.70;;;15.20;99.90;;;;;;5008390;28;20448;-61
2023/08/10 05:13:20;;;;;;;5.80;2.30;;;15.20;99.90;;;;;;5012782;28;20469;-60
2023/08/10 05:15:49;;;;;;;5.87;3.50;;;15.30;99.90;;;;;;5004371;28;20783;-61
2023/08/10 05:18:18;;;;;;;2.93;2.40;;;15.40;99.90;;;;;;4999477;28;20467;-61
2023/08/10 05:20:44;;;;;;;4.83;2.87;;;15.40;99.90;;;;;;4998813;28;20466;-59
2023/08/10 05:23:11;;;;;;;3.03;2.40;;;15.50;99.90;;;;;;4998182;28;20459;-59
2023/08/10 05:25:40;;;;;;;7.30;2.37;;;15.60;99.90;;;;;;4993387;28;20494;-61
2023/08/10 05:28:07;;;;;;;4.47;2.83;;;15.70;99.90;;;;;;4981774;28;20813;-59
2023/08/10 05:30:34;;;;;;;2.90;1.87;;;15.80;99.90;;;;;;4981669;28;20482;-59
2023/08/10 05:33:01;;;;;;;8.70;2.40;;;15.80;99.90;;;;;;4981520;28;20549;-60
2023/08/10 05:35:28;;;;;;;2.37;1.93;;;15.90;99.90;;;;;;4981605;28;20558;-59
2023/08/10 05:37:55;;;;;;;4.40;2.07;;;16.00;99.90;;;;;;4978250;28;20471;-59
2023/08/10 05:40:28;;;;;;;2.53;1.50;;;16.00;99.90;;;;;;4982198;28;20506;-57
2023/08/10 05:42:56;;;;;;;6.63;2.23;;;16.10;99.90;;;;;;5019529;28;20434;-55
2023/08/10 05:45:27;;;;;;;6.43;1.97;;;16.10;99.90;;;;;;5018208;28;20481;-59
2023/08/10 05:47:54;;;;;;;5.80;2.17;;;16.20;99.90;;;;;;5017354;28;20442;-56
2023/08/10 05:50:21;;;;;;;3.43;2.30;;;16.30;99.90;;;;;;5017708;28;20438;-59
2023/08/10 05:52:49;;;;;;;2.90;1.80;;;16.30;99.90;;;;;;5018198;28;20498;-59
2023/08/10 05:55:16;;;;;;;11.43;2.63;;;16.40;99.90;;;;;;5011024;28;20463;-61
2023/08/10 05:57:43;;;;;;;3.73;1.80;;;16.40;99.90;;;;;;5010908;28;20462;-61
2023/08/10 06:00:13;;;;;;;4.53;2.37;;;16.50;99.90;;;;;;5010553;28;20434;-59
2023/08/10 06:02:41;;;;;;;4.70;1.87;;;16.50;99.90;;;;;;4978594;28;20457;-61
2023/08/10 06:05:08;;;;;;;6.30;2.10;;;16.50;99.90;;;;;;4978077;28;20796;-60
2023/08/10 06:07:36;;;;;;;2.63;1.70;;;16.60;99.90;;;;;;4977998;28;20462;-59
2023/08/10 06:10:03;;;;;;;3.57;1.90;;;16.70;99.90;;;;;;4977895;28;20439;-58
2023/08/10 06:12:31;;;;;;;5.30;1.90;;;16.60;99.90;;;;;;4996627;28;20991;-60
2023/08/10 06:14:58;;;;;;;10.23;2.13;;;16.70;99.90;;;;;;5012791;28;20549;-59
2023/08/10 06:17:27;;;;;;;4.90;1.80;;;16.80;99.90;;;;;;5017390;28;20801;-61
2023/08/10 06:19:57;;;;;;;4.40;1.97;;;16.90;99.90;;;;;;5015987;28;20548;-61
2023/08/10 06:22:24;;;;;;;6.73;2.33;;;17.00;99.90;;;;;;4992793;28;20475;-61
2023/08/10 06:24:51;;;;;;;8.70;1.90;;;17.10;99.90;;;;;;4977642;28;20844;-58
2023/08/10 06:27:18;;;;;;;5.53;2.20;;;17.20;99.90;;;;;;4977716;28;20499;-61
2023/08/10 06:29:45;;;;;;;5.87;2.50;;;17.30;99.90;;;;;;4989328;28;20466;-60
2023/08/10 06:32:12;;;;;;;3.50;1.80;;;17.30;99.90;;;;;;4976457;28;20545;-58
2023/08/10 06:34:40;;;;;;;4.53;2.07;;;17.40;99.90;;;;;;4976230;28;20483;-58
2023/08/10 06:37:07;;;;;;;4.83;2.13;;;17.40;99.90;;;;;;4976451;28;20546;-60
2023/08/10 06:39:34;;;;;;;7.20;2.20;;;17.50;99.90;;;;;;4976467;28;20450;-59
2023/08/10 06:42:01;;;;;;;7.20;2.40;;;17.60;99.90;;;;;;4991534;28;20470;-59
2023/08/10 06:44:29;;;;;;;7.10;2.17;;;17.70;99.90;;;;;;4996086;28;20815;-59
2023/08/10 06:46:56;;;;;;;15.27;3.77;;;17.80;99.90;;;;;;5003373;28;20460;-58
2023/08/10 06:49:23;;;;;;;6.47;2.27;;;18.00;99.90;;;;;;5002435;28;20831;-58
2023/08/10 06:51:52;;;;;;;6.83;1.90;;;18.10;99.90;;;;;;4996425;28;20504;-60
2023/08/10 06:54:20;;;;;;;5.87;2.83;;;18.20;99.90;;;;;;4998649;28;20548;-59
2023/08/10 06:56:46;;;;;;;5.87;1.87;;;18.20;99.90;;;;;;5001577;28;20546;-59
2023/08/10 06:59:13;;;;;;;5.63;2.13;;;18.30;99.90;;;;;;5008374;28;20474;-59
2023/08/10 07:01:42;;;;;;;13.70;2.03;;;18.30;99.90;;;;;;4998077;28;20490;-62
2023/08/10 07:04:08;;;;;;;10.23;4.83;;;18.40;99.90;;;;;;4996563;28;20486;-59
2023/08/10 07:06:35;;;;;;;6.97;2.77;;;18.50;99.90;;;;;;4997408;28;20465;-60
2023/08/10 07:09:05;;;;;;;10.27;1.70;;;18.70;99.90;;;;;;4998571;28;20450;-60
2023/08/10 07:11:32;;;;;;;6.53;2.20;;;18.80;99.90;;;;;;5000864;28;20468;-56
2023/08/10 07:13:59;;;;;;;5.73;1.50;;;18.80;99.90;;;;;;5007269;28;20450;-60
2023/08/10 07:16:26;;;;;;;4.97;1.90;;;18.80;99.90;;;;;;5007815;28;20453;-59
2023/08/10 07:18:53;;;;;;;2.67;1.60;;;18.70;99.90;;;;;;5007754;28;20972;-60
2023/08/10 07:21:22;;;;;;;2.33;1.40;;;18.70;99.90;;;;;;5006819;28;20489;-60
2023/08/10 07:23:49;;;;;;;8.23;2.10;;;18.60;99.90;;;;;;5007972;28;20450;-60
2023/08/10 07:26:17;;;;;;;1.60;1.10;;;18.60;99.90;;;;;;5007765;28;20481;-59
2023/08/10 07:28:44;;;;;;;3.80;2.23;;;18.50;99.90;;;;;;5008074;28;20490;-61
2023/08/10 07:31:11;;;;;;;3.47;1.50;;;18.60;99.90;;;;;;4996252;28;20450;-59
2023/08/10 07:33:38;;;;;;;5.93;1.50;;;18.60;99.90;;;;;;4996214;28;20542;-59
2023/08/10 07:36:06;;;;;;;4.03;1.70;;;18.50;99.90;;;;;;4995983;28;20454;-59
2023/08/10 07:38:33;;;;;;;5.73;2.43;;;18.40;99.90;;;;;;4995783;28;20524;-61
2023/08/10 07:41:00;;;;;;;4.23;1.67;;;18.30;99.90;;;;;;4996201;28;20438;-60
2023/08/10 07:43:29;;;;;;;8.73;2.10;;;18.40;99.90;;;;;;4995657;28;20496;-61
2023/08/10 07:45:56;;;;;;;6.50;1.50;;;18.50;99.90;;;;;;4996759;28;20482;-60
2023/08/10 07:48:23;;;;;;;3.67;1.60;;;18.70;99.90;;;;;;4996606;28;20450;-60
2023/08/10 07:50:50;;;;;;;10.03;1.50;;;19.00;99.90;;;;;;4994232;28;20515;-60
2023/08/10 07:53:17;;;;;;;5.53;1.40;;;19.10;99.90;;;;;;4996412;28;20536;-59
2023/08/10 07:55:44;;;;;;;3.10;1.70;;;19.10;99.90;;;;;;4995700;28;20502;-59
2023/08/10 07:58:12;;;;;;;9.60;1.60;;;19.20;99.90;;;;;;4984541;28;20470;-60
2023/08/10 08:00:41;;;;;;;6.20;1.37;;;19.20;99.90;;;;;;4992367;28;20450;-48
2023/08/10 08:03:09;;;;;;;6.87;1.53;;;19.20;99.90;;;;;;4982826;28;20587;-60
2023/08/10 08:05:37;;;;;;;3.73;1.83;;;19.20;99.90;;;;;;4985561;28;20507;-49
2023/08/10 08:08:07;;;;;;;4.70;1.43;;;19.20;99.90;;;;;;4999464;28;20419;-54
2023/08/10 08:10:34;;;;;;;6.77;1.70;;;19.30;99.90;;;;;;4980939;28;20557;-60
2023/08/10 08:13:02;;;;;;;5.20;1.80;;;19.60;99.90;;;;;;4976498;28;20497;-62
2023/08/10 08:15:29;;;;;;;6.00;2.10;;;20.20;99.90;;;;;;5018852;28;20462;-54
2023/08/10 08:18:34;;;;;;;3.10;1.50;;;20.90;99.90;;;;;;5017424;28;20434;-59
2023/08/10 08:21:02;;;;;;;2.30;1.60;;;22.20;99.90;;;;;;5016585;28;20458;-58
2023/08/10 08:23:29;;;;;;;6.27;1.67;;;23.20;99.90;;;;;;5015580;28;20462;-58
2023/08/10 08:25:56;;;;;;;2.50;1.70;;;24.10;99.90;;;;;;5005271;28;21000;-60
2023/08/10 08:28:25;;;;;;;1.87;1.67;;;24.60;96.50;;;;;;4997951;28;20521;-53
2023/08/10 08:30:53;;;;;;;1.53;1.27;;;24.70;93.80;;;;;;5017218;28;20478;-59
2023/08/10 08:33:20;;;;;;;2.80;1.40;;;25.10;90.90;;;;;;4995514;28;20516;-60
2023/08/10 08:35:48;;;;;;;2.30;1.33;;;25.90;88.30;;;;;;4995351;28;20745;-60
2023/08/10 08:38:17;;;;;;;3.13;1.60;;;26.70;78.50;;;;;;5003960;28;20458;-61
2023/08/10 08:40:44;;;;;;;4.60;2.07;;;27.30;73.40;;;;;;5016196;28;20488;-59
2023/08/10 08:43:12;;;;;;;3.37;1.53;;;27.70;70.20;;;;;;5015840;28;20445;-60
2023/08/10 08:45:40;;;;;;;3.07;1.63;;;28.40;67.00;;;;;;5010935;28;20504;-59
2023/08/10 08:48:09;;;;;;;3.93;1.90;;;28.90;64.00;;;;;;5001903;28;20443;-58
2023/08/10 08:50:37;;;;;;;3.83;1.70;;;29.50;60.00;;;;;;4986079;28;20518;-60
2023/08/10 08:53:10;;;;;;;2.13;1.60;;;29.80;56.80;;;;;;4983683;28;20542;-59
2023/08/10 08:55:41;;;;;;;3.13;1.60;;;29.70;57.40;;;;;;4985952;28;20451;-59
2023/08/10 08:58:08;;;;;;;2.60;1.40;;;29.30;56.10;;;;;;4985426;28;20754;-61
2023/08/10 09:00:36;;;;;;;2.80;1.60;;;28.10;57.10;;;;;;4976072;28;20454;-60
2023/08/10 09:03:03;;;;;;;3.60;2.00;;;27.20;60.00;;;;;;4975797;28;20773;-60
2023/08/10 09:05:31;;;;;;;3.00;1.60;;;26.90;62.80;;;;;;4975855;28;20478;-60
2023/08/10 09:07:59;;;;;;;1.70;1.23;;;27.50;62.30;;;;;;4975778;28;20446;-61
2023/08/10 09:10:26;;;;;;;4.50;1.40;;;28.00;59.80;;;;;;4976324;28;20483;-60
2023/08/10 09:12:55;;;;;;;6.83;2.93;;;27.70;58.00;;;;;;4977268;28;20537;-58
2023/08/10 09:15:27;;;;;;;5.03;1.53;;;27.80;59.70;;;;;;4977740;28;20470;-62
2023/08/10 09:17:57;;;;;;;3.50;1.77;;;28.00;60.60;;;;;;4967151;28;20412;-52
2023/08/10 09:20:26;;;;;;;2.60;1.40;;;28.20;60.40;;;;;;4983267;28;20415;-50
2023/08/10 09:22:56;;;;;;;2.03;1.43;;;27.90;60.10;;;;;;4983115;29;20452;-52
2023/08/10 09:25:24;;;;;;;3.07;1.40;;;27.90;64.00;;;;;;4982990;28;20481;-49
2023/08/10 09:27:52;;;;;;;7.67;2.00;;;28.10;62.40;;;;;;4983014;28;20424;-47
2023/08/10 09:30:21;;;;;;;3.30;1.33;;;27.60;60.60;;;;;;4969621;28;20464;-60
2023/08/10 09:32:48;;;;;;;5.07;2.40;;;26.90;61.60;;;;;;4959506;28;20460;-61
2023/08/10 09:35:16;;;;;;;3.47;1.53;;;25.90;64.10;;;;;;4959725;29;20503;-60
2023/08/10 09:37:44;;;;;;;3.60;1.80;;;25.10;66.00;;;;;;4959624;28;20523;-60
2023/08/10 09:40:15;;;;;;;1.53;1.20;;;24.30;67.70;;;;;;4960156;29;20427;-61
2023/08/10 09:42:43;;;;;;;8.13;2.00;;;23.60;70.40;;;;;;4959961;28;20475;-60
2023/08/10 09:45:12;;;;;;;3.90;1.67;;;23.00;73.60;;;;;;4961103;29;20479;-61
2023/08/10 09:47:41;;;;;;;7.27;2.03;;;23.00;75.20;;;;;;4978370;28;20463;-58
2023/08/10 09:50:13;;;;;;;7.53;2.23;;;23.00;77.00;;;;;;5001994;28;20423;-47
2023/08/10 09:52:44;;;;;;;7.60;1.70;;;22.80;77.40;;;;;;5001958;28;20450;-47
2023/08/10 09:55:12;;;;;;;3.03;1.60;;;23.40;79.90;;;;;;5001747;28;20414;-52
2023/08/10 09:57:40;;;;;;;5.93;1.60;;;24.00;77.20;;;;;;4999139;28;20458;-58
2023/08/10 10:00:16;;;;;;;2.57;1.50;;;24.30;77.40;;;;;;4998726;28;20466;-60
2023/08/10 10:02:44;;;;;;;6.43;1.90;;;25.10;75.50;;;;;;4986404;28;20533;-60
2023/08/10 10:05:12;;;;;;;3.13;1.63;;;25.20;73.20;;;;;;4978138;28;20967;-60
2023/08/10 10:07:40;;;;;;;2.83;1.77;;;25.10;72.10;;;;;;4977980;28;20478;-62
2023/08/10 10:10:12;;;;;;;2.30;1.70;;;24.30;73.60;;;;;;4978473;28;20458;-59
2023/08/10 10:12:39;;;;;;;3.03;1.60;;;24.10;75.00;;;;;;4978252;28;20553;-62
2023/08/10 10:15:08;;;;;;;1.83;1.43;;;24.20;76.00;;;;;;4978123;28;20451;-61
2023/08/10 10:17:35;;;;;;;6.53;1.30;;;24.30;75.80;;;;;;4959340;28;20508;-60
2023/08/10 10:20:11;;;;;;;2.93;1.40;;;24.80;75.10;;;;;;4981994;28;20428;-49
2023/08/10 10:22:39;;;;;;;4.13;1.70;;;25.00;73.10;;;;;;4981872;28;20463;-53
2023/08/10 10:25:14;;;;;;;4.40;1.47;;;24.50;72.70;;;;;;4978289;28;20783;-60
2023/08/10 10:27:41;;;;;;;3.10;2.00;;;24.00;73.40;;;;;;4958570;29;20484;-60
2023/08/10 10:30:18;;;;;;;3.93;1.77;;;23.80;76.40;;;;;;4961695;29;20657;-60
2023/08/10 10:32:48;;;;;;;4.30;1.73;;;24.10;76.80;;;;;;4975896;28;20487;-61
2023/08/10 10:35:22;;;;;;;4.43;1.63;;;24.70;76.10;;;;;;4977700;28;20423;-58
2023/08/10 10:37:55;;;;;;;3.00;1.70;;;24.50;74.20;;;;;;4978027;28;20485;-61
2023/08/10 10:40:23;;;;;;;2.83;2.00;;;23.90;75.70;;;;;;4997033;28;20446;-62
2023/08/10 10:43:10;;;;;;;3.70;1.50;;;23.50;77.80;;;;;;5005690;28;20520;-49
2023/08/10 10:45:39;;;;;;;3.87;1.80;;;23.00;79.40;;;;;;5020591;28;20481;-49
2023/08/10 10:48:07;;;;;;;2.93;1.47;;;22.50;81.10;;;;;;5020383;28;20465;-54
2023/08/10 10:50:37;;;;;;;3.67;2.37;;;22.00;84.20;;;;;;5020475;28;20422;-52
2023/08/10 10:53:05;;;;;;;3.80;1.53;;;21.80;87.30;;;;;;4996372;28;20478;-59
2023/08/10 10:55:40;;;;;;;3.63;1.53;;;21.70;89.40;;;;;;4997199;28;20465;-61
2023/08/10 10:58:08;;;;;;;3.30;1.60;;;22.10;90.30;;;;;;4989382;28;20462;-60
2023/08/10 11:00:37;;;;;;;2.23;1.43;;;22.70;90.20;;;;;;4983667;28;20447;-57
2023/08/10 11:03:06;;;;;;;9.93;5.03;;;23.20;84.50;;;;;;4992892;28;20857;-60
2023/08/10 11:05:34;;;;;;;4.47;1.57;;;23.10;83.30;;;;;;4996803;28;20496;-59
2023/08/10 11:08:03;;;;;;;2.33;1.67;;;23.10;87.20;;;;;;4999888;28;20551;-61
2023/08/10 11:10:31;;;;;;;3.37;2.20;;;23.10;85.70;;;;;;5002100;28;20456;-60
2023/08/10 11:12:58;;;;;;;6.13;1.67;;;23.10;84.60;;;;;;4997310;28;20473;-61
2023/08/10 11:15:25;;;;;;;11.10;3.10;;;23.00;85.70;;;;;;4996259;28;20452;-59
2023/08/10 11:17:54;;;;;;;6.50;2.80;;;22.90;86.10;;;;;;4996115;28;20474;-59
2023/08/10 11:20:22;;;;;;;2.87;1.70;;;22.80;88.20;;;;;;4996622;28;20453;-60
2023/08/10 11:22:54;;;;;;;4.60;2.40;;;22.80;89.60;;;;;;5000795;28;20466;-61
2023/08/10 11:25:23;;;;;;;3.67;1.87;;;23.00;87.20;;;;;;4996435;28;20482;-61
2023/08/10 11:27:52;;;;;;;4.20;2.90;;;23.10;87.30;;;;;;4996366;28;20446;-60
2023/08/10 11:30:21;;;;;;;1.77;1.53;;;23.20;87.90;;;;;;4996617;28;20977;-61
2023/08/10 11:32:50;;;;;;;2.37;1.70;;;23.50;88.00;;;;;;5002508;28;20446;-59
2023/08/10 11:35:20;;;;;;;3.20;1.60;;;23.70;86.40;;;;;;5001582;28;20442;-61
2023/08/10 11:37:48;;;;;;;2.43;2.10;;;23.80;83.10;;;;;;5001742;28;20453;-60
2023/08/10 11:40:18;;;;;;;6.77;2.23;;;23.80;81.70;;;;;;5002083;28;20442;-61
2023/08/10 11:42:47;;;;;;;5.43;1.60;;;23.50;80.80;;;;;;5001918;28;20530;-59
2023/08/10 11:45:19;;;;;;;2.53;1.90;;;23.20;81.80;;;;;;5001847;28;20442;-61
2023/08/10 11:47:51;;;;;;;3.30;2.37;;;23.00;81.20;;;;;;5003153;28;20526;-59
2023/08/10 11:50:20;;;;;;;2.43;1.90;;;22.70;83.80;;;;;;4996088;28;20468;-60
2023/08/10 11:52:49;;;;;;;3.63;1.80;;;22.50;87.10;;;;;;4995886;28;20454;-62
2023/08/10 11:55:18;;;;;;;2.70;1.40;;;22.50;88.90;;;;;;4995794;28;20544;-60
2023/08/10 11:57:49;;;;;;;3.63;1.90;;;22.70;90.40;;;;;;4995713;28;20446;-59
2023/08/10 12:00:25;;;;;;;2.20;1.77;;;22.90;90.80;;;;;;4996702;28;20454;-60
2023/08/10 12:03:04;;;;;;;5.13;1.60;;;23.10;91.50;;;;;;4996776;28;20500;-61
2023/08/10 12:05:43;;;;;;;6.30;1.40;;;23.30;90.80;;;;;;4978924;28;20505;-61
2023/08/10 12:08:12;;;;;;;5.27;2.03;;;23.40;90.60;;;;;;4983164;28;20486;-59
2023/08/10 12:10:42;;;;;;;3.20;1.50;;;23.50;90.20;;;;;;4989097;28;20462;-56
2023/08/10 12:13:11;;;;;;;1.93;1.30;;;23.50;88.60;;;;;;5011356;28;20446;-58
2023/08/10 12:15:44;;;;;;;6.13;1.73;;;23.40;90.00;;;;;;5003428;28;20537;-60
2023/08/10 12:18:11;;;;;;;5.47;2.23;;;23.40;89.40;;;;;;5004078;28;20458;-59
2023/08/10 12:20:38;;;;;;;4.10;1.90;;;23.20;89.20;;;;;;4985348;28;20459;-60
2023/08/10 12:23:05;;;;;;;2.87;2.30;;;23.00;90.20;;;;;;4983381;28;20471;-59
2023/08/10 12:25:32;;;;;;;5.63;2.60;;;23.00;90.70;;;;;;4986259;28;20989;-61
2023/08/10 12:28:00;;;;;;;3.30;1.50;;;22.90;89.20;;;;;;5001658;28;20532;-60
2023/08/10 12:30:27;;;;;;;4.70;1.70;;;22.80;89.90;;;;;;5002030;28;20473;-61
2023/08/10 12:32:55;;;;;;;6.77;2.17;;;22.80;90.10;;;;;;5001053;28;20472;-61
2023/08/10 12:35:22;;;;;;;2.47;1.77;;;22.70;88.30;;;;;;5002355;28;20544;-59
2023/08/10 12:37:53;;;;;;;4.30;1.77;;;22.50;88.10;;;;;;5006485;28;20450;-58
2023/08/10 12:40:21;;;;;;;8.13;2.47;;;24.30;91.10;;;;;;5010740;28;20569;-60
2023/08/10 12:42:48;;;;;;;2.50;1.30;;;22.50;91.10;;;;;;5010957;28;20867;-60
2023/08/10 12:45:17;;;;;;;1.73;1.40;;;22.50;89.80;;;;;;5009623;28;20520;-61
2023/08/10 12:47:45;;;;;;;3.30;1.57;;;22.30;89.70;;;;;;5013975;28;20500;-57
2023/08/10 12:50:15;;;;;;;9.83;1.70;;;22.20;90.00;;;;;;5014103;28;20484;-60